Hawkhurst, United Kingdom
Current Conditions -  °F | °C
As of 6:50 PM on Saturday 20 Dec 2014 (Local Time) from EGMD Reporting Station
Few Clouds Few Clouds  
Wind Chill: 41°   Ceiling: Unl
Heat Index: 46°   Visibility: 6mi
Dew Point: 41°   Wind: 13mph
Humidity: 81%   Direction: 270°W
Pressure: 30.42"   Gusts: NA
Location:  51.05°N, 0.51°E
Report Text: EGMD 201850Z 27011KT 9999 FEW040 08/05 Q1030
Loading
Personal Weather Stations






























Interactive Weather Map New forecast layout! Learn more

10-Day Weather Forecast

Advertisements
Track Severe Weather on mobile